Time;durP1;ratioP1;P1;durP2;ratioP2;P2;SDS_P1;SDS_P2;PMS_P1;PMS_P2;Temp;Humidity;BMP_temperature;BMP_pressure;BME280_temperature;BME280_humidity;BME280_pressure;Samples;Min_cycle;Max_cycle;Signal;HPM_P1;HPM_P2
2022/12/07 00:01:19;;;;;;;5.05;4.60;;;;;;;1.84;100.00;95824.56;5064922;28;24526;-71
2022/12/07 00:03:47;;;;;;;5.82;4.85;;;;;;;1.88;100.00;95820.22;5067104;28;24431;-70
2022/12/07 00:06:16;;;;;;;5.45;4.95;;;;;;;1.89;100.00;95824.44;5061429;28;24450;-70
2022/12/07 00:08:43;;;;;;;6.72;5.03;;;;;;;1.68;100.00;95820.78;5065959;28;24829;-71
2022/12/07 00:11:12;;;;;;;5.77;4.90;;;;;;;1.85;100.00;95820.31;5065958;28;24447;-70
2022/12/07 00:13:38;;;;;;;5.68;4.85;;;;;;;1.86;100.00;95822.84;5057933;28;24439;-70
2022/12/07 00:16:08;;;;;;;5.50;4.90;;;;;;;1.76;100.00;95821.41;5069008;28;24983;-70
2022/12/07 00:18:37;;;;;;;6.53;4.80;;;;;;;1.63;100.00;95817.50;5064325;28;25100;-71
2022/12/07 00:21:05;;;;;;;4.60;4.20;;;;;;;1.66;100.00;95820.81;5066236;28;24478;-70
2022/12/07 00:23:33;;;;;;;6.20;4.80;;;;;;;1.60;100.00;95818.44;5060536;28;24427;-70
2022/12/07 00:26:04;;;;;;;6.65;5.35;;;;;;;1.55;100.00;95817.72;5061481;28;24434;-70
2022/12/07 00:28:31;;;;;;;5.57;4.90;;;;;;;1.54;100.00;95812.66;5065249;28;24435;-70
2022/12/07 00:31:01;;;;;;;5.38;4.88;;;;;;;1.63;100.00;95805.59;5065932;28;24991;-70
2022/12/07 00:33:28;;;;;;;5.25;4.75;;;;;;;1.75;100.00;95806.13;5063431;28;24438;-70
2022/12/07 00:35:58;;;;;;;5.32;4.72;;;;;;;1.80;100.00;95811.94;5067557;28;24434;-71
2022/12/07 00:38:24;;;;;;;5.45;4.82;;;;;;;1.96;100.00;95813.19;5067826;28;24423;-70
2022/12/07 00:40:56;;;;;;;5.63;5.13;;;;;;;2.07;100.00;95806.03;5061622;28;24431;-71
2022/12/07 00:43:23;;;;;;;4.82;4.30;;;;;;;1.96;100.00;95814.91;5060239;28;25256;-70
2022/12/07 00:45:49;;;;;;;6.75;5.28;;;;;;;1.87;100.00;95811.72;5064821;28;24433;-71
2022/12/07 00:48:15;;;;;;;5.03;4.53;;;;;;;1.71;100.00;95815.59;5063539;28;24813;-70
2022/12/07 00:50:42;;;;;;;5.00;4.32;;;;;;;1.80;100.00;95799.19;5065641;28;24462;-71
2022/12/07 00:53:10;;;;;;;5.60;4.53;;;;;;;1.86;100.00;95809.22;5065436;28;26168;-71
2022/12/07 00:55:37;;;;;;;5.35;4.85;;;;;;;2.21;100.00;95810.75;5067884;28;25030;-70
2022/12/07 00:58:04;;;;;;;5.32;4.82;;;;;;;2.21;100.00;95809.94;5064553;28;24446;-70
2022/12/07 01:00:31;;;;;;;5.68;5.15;;;;;;;2.10;100.00;95813.63;5057720;28;24435;-70
2022/12/07 01:02:57;;;;;;;6.47;4.77;;;;;;;2.11;100.00;95811.91;5064598;28;24471;-70
2022/12/07 01:05:24;;;;;;;6.00;5.00;;;;;;;1.91;100.00;95822.69;5068589;28;25047;-71
2022/12/07 01:07:50;;;;;;;7.72;5.03;;;;;;;1.68;100.00;95820.78;5064323;28;24437;-70
2022/12/07 01:10:19;;;;;;;6.97;5.15;;;;;;;1.47;100.00;95816.25;5067645;28;24462;-70
2022/12/07 01:12:45;;;;;;;8.15;5.10;;;;;;;1.46;100.00;95812.84;5060043;28;24435;-70
2022/12/07 01:15:12;;;;;;;6.70;5.50;;;;;;;1.51;100.00;95816.13;5064563;28;24446;-70
2022/12/07 01:17:38;;;;;;;6.20;4.65;;;;;;;1.56;100.00;95814.31;5062731;28;25058;-70
2022/12/07 01:20:06;;;;;;;5.20;4.70;;;;;;;1.97;100.00;95816.59;5067639;28;24433;-70
2022/12/07 01:22:37;;;;;;;5.13;4.63;;;;;;;2.11;100.00;95814.47;5055933;28;24582;-71
2022/12/07 01:25:04;;;;;;;5.43;4.93;;;;;;;1.99;100.00;95820.75;5064903;28;24438;-70
2022/12/07 01:27:33;;;;;;;5.20;4.70;;;;;;;1.87;100.00;95823.66;5059423;28;24459;-70
2022/12/07 01:30:00;;;;;;;5.75;4.85;;;;;;;1.84;100.00;95826.31;5065178;28;24813;-70
2022/12/07 01:32:27;;;;;;;5.17;4.77;;;;;;;1.80;100.00;95824.72;5060257;28;24443;-70
2022/12/07 01:34:53;;;;;;;5.50;4.97;;;;;;;1.81;100.00;95826.38;5066699;28;24480;-70
2022/12/07 01:37:20;;;;;;;6.30;5.15;;;;;;;1.79;100.00;95829.00;5061319;28;24790;-70
2022/12/07 01:39:49;;;;;;;6.18;5.43;;;;;;;1.83;100.00;95822.91;5067590;28;24430;-71
2022/12/07 01:42:16;;;;;;;5.13;4.63;;;;;;;1.88;100.00;95833.81;5059780;28;24802;-70
2022/12/07 01:45:27;;;;;;;5.00;4.50;;;;;;;1.72;100.00;95831.75;5068325;28;24445;-70
2022/12/07 01:47:57;;;;;;;5.00;4.60;;;;;;;1.38;100.00;95836.03;5062906;28;25112;-70
2022/12/07 01:50:31;;;;;;;4.90;4.50;;;;;;;1.46;100.00;95825.63;5066043;28;24529;-71
2022/12/07 01:53:01;;;;;;;4.68;4.28;;;;;;;1.53;100.00;95827.13;5058108;28;24453;-71
2022/12/07 01:55:28;;;;;;;5.07;4.57;;;;;;;1.61;100.00;95827.75;5058047;28;24450;-70
2022/12/07 01:57:56;;;;;;;4.93;4.43;;;;;;;1.56;100.00;95821.09;5065094;28;24438;-71
2022/12/07 02:00:23;;;;;;;4.47;4.07;;;;;;;1.66;100.00;95819.97;5067100;28;25007;-70
2022/12/07 02:02:54;;;;;;;5.40;4.90;;;;;;;1.72;100.00;95827.47;5058658;28;25030;-70
2022/12/07 02:05:23;;;;;;;5.32;4.82;;;;;;;1.76;100.00;95828.22;5058212;28;24937;-70
2022/12/07 02:07:52;;;;;;;5.75;4.45;;;;;;;1.82;100.00;95828.91;5066009;28;24449;-70
2022/12/07 02:10:21;;;;;;;5.47;4.53;;;;;;;1.87;100.00;95837.28;5059361;28;25027;-70
2022/12/07 02:12:52;;;;;;;4.63;4.22;;;;;;;1.85;100.00;95830.53;5059504;28;24457;-70
2022/12/07 02:15:21;;;;;;;4.23;3.83;;;;;;;1.81;100.00;95839.16;5058224;28;24443;-70
2022/12/07 02:17:55;;;;;;;4.60;4.20;;;;;;;1.81;100.00;95839.97;5066425;28;24442;-71
2022/12/07 02:20:31;;;;;;;5.18;4.13;;;;;;;1.79;100.00;95831.53;5059575;28;24453;-70
2022/12/07 02:23:13;;;;;;;5.55;4.20;;;;;;;1.80;100.00;95832.38;5057781;28;24457;-70
2022/12/07 02:26:03;;;;;;;4.97;4.47;;;;;;;1.81;100.00;95829.75;5063795;28;24434;-70
2022/12/07 02:28:34;;;;;;;4.78;4.22;;;;;;;1.77;100.00;95828.19;5069185;28;24441;-70
2022/12/07 02:31:10;;;;;;;5.43;4.93;;;;;;;1.55;100.00;95822.81;5060062;28;25023;-71
2022/12/07 02:33:41;;;;;;;4.57;4.18;;;;;;;1.59;100.00;95824.41;5060914;28;24431;-70
2022/12/07 02:36:13;;;;;;;4.78;4.35;;;;;;;1.44;100.00;95827.38;5064866;28;24431;-70
2022/12/07 02:38:47;;;;;;;4.68;4.28;;;;;;;1.46;100.00;95825.63;5070521;28;24457;-70
2022/12/07 02:41:19;;;;;;;4.80;4.40;;;;;;;1.55;100.00;95824.53;5063407;28;24438;-70
2022/12/07 02:43:51;;;;;;;5.05;4.03;;;;;;;1.61;100.00;95827.75;5070201;28;24836;-70
2022/12/07 02:46:24;;;;;;;4.10;3.70;;;;;;;1.64;100.00;95825.13;5067424;28;24477;-70
2022/12/07 02:48:53;;;;;;;4.60;3.90;;;;;;;1.66;100.00;95823.34;5064741;28;24445;-70
2022/12/07 02:51:20;;;;;;;4.18;3.78;;;;;;;1.73;100.00;95820.66;5064139;28;24525;-70
2022/12/07 02:53:46;;;;;;;5.20;3.88;;;;;;;1.74;100.00;95823.16;5064825;28;24541;-70
2022/12/07 02:56:22;;;;;;;5.00;4.25;;;;;;;1.67;100.00;95812.28;5070380;28;24586;-70
2022/12/07 02:59:01;;;;;;;4.47;4.07;;;;;;;1.70;100.00;95812.19;5064978;28;24435;-70
2022/12/07 03:01:38;;;;;;;4.72;4.30;;;;;;;1.61;100.00;95812.44;5067694;28;24470;-70
2022/12/07 03:04:17;;;;;;;4.47;3.93;;;;;;;1.69;100.00;95809.69;5065607;28;24477;-70
2022/12/07 03:06:51;;;;;;;4.65;4.20;;;;;;;1.70;100.00;95803.69;5069912;28;24439;-70
2022/12/07 03:09:23;;;;;;;4.70;4.30;;;;;;;1.74;100.00;95804.44;5065070;28;24998;-70
2022/12/07 03:11:56;;;;;;;4.55;4.10;;;;;;;1.75;100.00;95806.13;5059776;28;25028;-70
2022/12/07 03:14:27;;;;;;;4.95;3.97;;;;;;;1.66;100.00;95804.66;5065779;28;24431;-70
2022/12/07 03:17:01;;;;;;;4.95;3.85;;;;;;;1.67;100.00;95803.81;5065190;28;24992;-70
2022/12/07 03:19:28;;;;;;;4.53;4.13;;;;;;;1.58;100.00;95799.75;5063679;28;24509;-70
2022/12/07 03:21:58;;;;;;;4.60;4.20;;;;;;;1.47;100.00;95793.28;5061268;28;24435;-70
2022/12/07 03:24:28;;;;;;;5.15;4.65;;;;;;;1.54;100.00;95797.34;5068503;28;24426;-70
2022/12/07 03:27:02;;;;;;;5.23;4.50;;;;;;;1.33;100.00;95794.47;5062295;28;24442;-70
2022/12/07 03:29:32;;;;;;;4.47;3.92;;;;;;;1.33;100.00;95802.13;5061408;28;24442;-70
2022/12/07 03:32:07;;;;;;;5.05;4.55;;;;;;;1.28;100.00;95787.81;5066075;28;24469;-71
2022/12/07 03:34:37;;;;;;;5.95;4.40;;;;;;;1.15;100.00;95800.91;5065648;28;24447;-70
2022/12/07 03:37:08;;;;;;;6.50;4.33;;;;;;;1.12;100.00;95800.97;5058336;28;24427;-71
2022/12/07 03:39:39;;;;;;;7.15;4.35;;;;;;;1.11;100.00;95799.31;5058772;28;24431;-70
2022/12/07 03:42:08;;;;;;;5.18;4.53;;;;;;;1.14;100.00;95799.22;5066373;28;24453;-70
2022/12/07 03:44:36;;;;;;;6.72;4.68;;;;;;;1.19;100.00;95791.47;5066285;28;24439;-70
2022/12/07 03:47:12;;;;;;;4.65;4.03;;;;;;;1.32;100.00;95797.06;5066556;28;24976;-70
2022/12/07 03:49:44;;;;;;;5.13;4.63;;;;;;;1.32;100.00;95800.44;5065946;28;24441;-70
2022/12/07 03:52:19;;;;;;;4.95;4.47;;;;;;;1.42;100.00;95795.97;5063608;28;24466;-70
2022/12/07 03:54:53;;;;;;;5.05;4.25;;;;;;;1.47;100.00;95796.66;5062432;28;24435;-70
2022/12/07 03:57:20;;;;;;;5.25;4.25;;;;;;;1.56;100.00;95795.56;5062320;28;24439;-70
2022/12/07 03:59:47;;;;;;;5.32;4.25;;;;;;;1.54;100.00;95787.97;5058059;28;24972;-71
2022/12/07 04:02:16;;;;;;;4.38;3.97;;;;;;;1.56;100.00;95787.91;5062700;28;24984;-70
2022/12/07 04:04:44;;;;;;;4.90;4.40;;;;;;;1.57;100.00;95787.06;5061306;28;24802;-70
2022/12/07 04:07:10;;;;;;;5.43;3.70;;;;;;;1.57;100.00;95793.00;5063130;28;24435;-70
2022/12/07 04:09:37;;;;;;;5.82;4.38;;;;;;;1.50;100.00;95793.19;5066380;28;24431;-71
2022/12/07 04:12:03;;;;;;;6.38;4.70;;;;;;;1.23;100.00;95789.66;5069410;28;24474;-70
2022/12/07 04:14:30;;;;;;;4.88;4.38;;;;;;;1.32;100.00;95791.97;5063475;28;24437;-70
2022/12/07 04:16:58;;;;;;;4.40;4.00;;;;;;;1.40;100.00;95795.16;5063000;28;24431;-70
2022/12/07 04:19:28;;;;;;;6.17;4.83;;;;;;;1.25;100.00;95790.44;5057983;28;25076;-71
2022/12/07 04:21:55;;;;;;;4.65;3.63;;;;;;;1.32;100.00;95786.88;5062971;28;24434;-70
2022/12/07 04:24:22;;;;;;;6.83;4.60;;;;;;;1.24;100.00;95789.63;5066860;28;24438;-70
2022/12/07 04:26:49;;;;;;;4.75;4.32;;;;;;;1.16;100.00;95797.47;5062108;28;24435;-70
2022/12/07 04:29:16;;;;;;;4.50;3.95;;;;;;;1.13;100.00;95791.59;5063027;28;24435;-71
2022/12/07 04:31:43;;;;;;;4.93;4.30;;;;;;;1.24;100.00;95791.34;5061389;28;24501;-70
2022/12/07 04:34:10;;;;;;;4.68;4.28;;;;;;;1.35;100.00;95779.13;5067213;28;24982;-71
2022/12/07 04:36:39;;;;;;;4.70;4.30;;;;;;;1.39;100.00;95767.97;5061860;28;24445;-70
2022/12/07 04:39:06;;;;;;;7.45;3.78;;;;;;;1.36;100.00;95757.84;5064536;28;24439;-70
2022/12/07 04:41:33;;;;;;;4.80;4.30;;;;;;;1.27;100.00;95746.16;5061079;28;24447;-70
2022/12/07 04:44:02;;;;;;;8.00;4.30;;;;;;;1.21;100.00;95741.22;5067348;28;24438;-70
2022/12/07 04:46:30;;;;;;;5.05;4.18;;;;;;;1.13;100.00;95743.16;5064308;28;24445;-70
2022/12/07 04:48:57;;;;;;;4.80;4.25;;;;;;;1.01;100.00;95751.97;5065177;28;24434;-70
2022/12/07 04:51:26;;;;;;;4.78;4.32;;;;;;;0.81;100.00;95759.25;5058859;28;24458;-71
2022/12/07 04:53:55;;;;;;;5.57;4.97;;;;;;;0.64;100.00;95757.13;5067634;28;24441;-70
2022/12/07 04:56:22;;;;;;;5.05;4.57;;;;;;;0.46;100.00;95754.16;5064215;28;24996;-70
2022/12/07 04:58:49;;;;;;;6.97;5.65;;;;;;;0.57;100.00;95759.00;5060133;28;24442;-71
2022/12/07 05:01:17;;;;;;;9.77;8.77;;;;;;;0.58;100.00;95757.28;5058454;28;24999;-70
2022/12/07 05:03:44;;;;;;;12.70;8.00;;;;;;;0.58;100.00;95749.63;5062139;28;24438;-70
2022/12/07 05:06:11;;;;;;;8.20;6.10;;;;;;;0.58;100.00;95749.63;5065284;28;24431;-70
2022/12/07 05:08:38;;;;;;;6.55;5.43;;;;;;;0.60;100.00;95750.44;5060035;28;25014;-70
2022/12/07 05:11:07;;;;;;;5.97;5.38;;;;;;;0.68;100.00;95748.53;5059515;28;24450;-70
2022/12/07 05:13:35;;;;;;;6.63;5.93;;;;;;;0.47;100.00;95750.72;5067249;28;24446;-70
2022/12/07 05:16:02;;;;;;;9.07;7.45;;;;;;;0.36;100.00;95765.41;5065959;28;24435;-70
2022/12/07 05:18:28;;;;;;;8.80;7.82;;;;;;;0.30;100.00;95764.72;5065600;28;24438;-70
2022/12/07 05:20:55;;;;;;;7.95;6.00;;;;;;;0.25;100.00;95764.81;5066517;28;24522;-70
2022/12/07 05:23:21;;;;;;;6.23;5.17;;;;;;;0.26;100.00;95765.66;5066187;28;24446;-70
2022/12/07 05:25:48;;;;;;;6.43;4.95;;;;;;;0.19;100.00;95770.06;5068123;28;24439;-70
2022/12/07 05:28:15;;;;;;;5.85;4.45;;;;;;;0.24;100.00;95774.19;5067975;28;24446;-70
2022/12/07 05:30:42;;;;;;;5.78;4.18;;;;;;;0.16;100.00;95773.53;5062175;28;25019;-70
2022/12/07 05:33:08;;;;;;;4.67;4.00;;;;;;;0.08;100.00;95775.41;5061598;28;24443;-70
2022/12/07 05:35:37;;;;;;;5.22;3.97;;;;;;;0.00;100.00;95777.28;5062463;28;24445;-70
2022/12/07 05:38:04;;;;;;;5.65;4.43;;;;;;;0.04;100.00;95775.47;5064999;28;24439;-69
2022/12/07 05:40:30;;;;;;;5.00;4.50;;;;;;;0.19;100.00;95770.06;5063663;28;24465;-70
2022/12/07 05:42:57;;;;;;;4.70;4.13;;;;;;;0.22;100.00;95773.41;5055907;28;24438;-70
2022/12/07 05:45:24;;;;;;;4.50;4.07;;;;;;;0.23;100.00;95774.22;5060773;28;25100;-71
2022/12/07 05:47:51;;;;;;;4.18;3.78;;;;;;;0.29;100.00;95776.63;5064764;28;24441;-70
2022/12/07 05:50:18;;;;;;;6.43;4.97;;;;;;;0.39;100.00;95770.44;5064024;28;24996;-71
2022/12/07 05:52:44;;;;;;;4.25;3.85;;;;;;;0.42;100.00;95777.19;5053065;28;24465;-70
2022/12/07 05:55:10;;;;;;;4.60;3.83;;;;;;;0.40;100.00;95784.84;5054450;28;24905;-70
2022/12/07 05:57:37;;;;;;;5.63;4.60;;;;;;;0.34;100.00;95786.72;5062985;28;24431;-70
2022/12/07 06:00:04;;;;;;;5.70;5.10;;;;;;;0.20;100.00;95782.75;5066095;28;24435;-71
2022/12/07 06:02:32;;;;;;;5.90;5.30;;;;;;;0.31;100.00;95777.44;5060529;28;24443;-71
2022/12/07 06:04:58;;;;;;;9.70;5.90;;;;;;;0.40;100.00;95771.28;5065489;28;24430;-71
2022/12/07 06:07:25;;;;;;;4.55;4.10;;;;;;;0.51;100.00;95773.56;5069612;28;24438;-71
2022/12/07 06:09:52;;;;;;;4.00;3.60;;;;;;;0.42;100.00;95780.56;5062907;28;24430;-71
2022/12/07 06:12:38;;;;;;;4.93;4.05;;;;;;;0.44;100.00;95783.91;5061310;28;24555;-71
2022/12/07 06:15:05;;;;;;;5.37;4.87;;;;;;;0.55;100.00;95780.28;5064400;28;24646;-73
2022/12/07 06:17:33;;;;;;;5.28;4.70;;;;;;;0.50;100.00;95790.59;5059519;28;24458;-72
2022/12/07 06:19:59;;;;;;;5.05;4.63;;;;;;;0.47;100.00;95786.38;5064561;28;24434;-72
2022/12/07 06:22:26;;;;;;;5.75;5.15;;;;;;;0.40;100.00;95795.03;5065514;28;24442;-71
2022/12/07 06:24:52;;;;;;;6.38;5.50;;;;;;;0.35;100.00;95788.38;5064782;28;24431;-72
2022/12/07 06:27:19;;;;;;;7.97;5.60;;;;;;;0.40;100.00;95797.59;5070536;28;24437;-72
2022/12/07 06:29:45;;;;;;;7.43;5.72;;;;;;;0.45;100.00;95793.25;5060018;28;24438;-70
2022/12/07 06:32:12;;;;;;;8.02;5.32;;;;;;;0.52;100.00;95803.28;5071036;28;24820;-70
2022/12/07 06:34:40;;;;;;;6.82;5.15;;;;;;;0.50;100.00;95797.41;5067342;28;24875;-70
2022/12/07 06:37:07;;;;;;;6.60;5.28;;;;;;;0.53;100.00;95800.72;5068393;28;24434;-71
2022/12/07 06:39:33;;;;;;;6.30;4.78;;;;;;;0.53;100.00;95800.72;5066463;28;24437;-66
2022/12/07 06:42:00;;;;;;;9.90;4.63;;;;;;;0.67;100.00;95792.75;5068335;28;24470;-66
2022/12/07 06:44:26;;;;;;;6.60;4.72;;;;;;;0.77;100.00;95789.09;5061290;28;24435;-70
2022/12/07 06:46:53;;;;;;;5.20;4.70;;;;;;;0.78;100.00;95793.34;5062020;28;24562;-72
2022/12/07 06:49:19;;;;;;;7.13;4.53;;;;;;;0.77;100.00;95788.25;5067221;28;24427;-71
2022/12/07 06:51:47;;;;;;;4.18;3.75;;;;;;;0.38;100.00;95793.41;5062980;28;24460;-71
2022/12/07 06:54:15;;;;;;;5.70;3.72;;;;;;;0.46;100.00;95794.09;5067284;28;24793;-71
2022/12/07 06:56:42;;;;;;;7.00;3.92;;;;;;;0.30;100.00;95798.69;5062844;28;24992;-72
2022/12/07 06:59:08;;;;;;;4.30;3.90;;;;;;;0.29;100.00;95802.09;5067208;28;24438;-72
2022/12/07 07:01:36;;;;;;;4.68;4.15;;;;;;;0.42;100.00;95795.03;5070039;28;24430;-71
2022/12/07 07:04:03;;;;;;;4.60;4.17;;;;;;;0.53;100.00;95798.16;5067360;28;24429;-72
2022/12/07 07:06:29;;;;;;;6.57;5.10;;;;;;;0.63;100.00;95802.19;5070389;28;24431;-72
2022/12/07 07:08:57;;;;;;;5.15;4.15;;;;;;;0.69;100.00;95796.09;5067053;28;25003;-71
2022/12/07 07:11:24;;;;;;;5.40;4.75;;;;;;;0.79;100.00;95795.00;5066071;28;24450;-70
2022/12/07 07:13:50;;;;;;;5.35;4.82;;;;;;;0.81;100.00;95803.44;5070460;28;24438;-72
2022/12/07 07:16:17;;;;;;;5.07;4.38;;;;;;;0.78;100.00;95789.91;5062229;28;24438;-71
2022/12/07 07:18:43;;;;;;;5.45;4.47;;;;;;;0.82;100.00;95797.47;5067452;28;24434;-71
2022/12/07 07:21:10;;;;;;;6.50;4.65;;;;;;;0.90;100.00;95790.47;5069826;28;24427;-72
2022/12/07 07:23:36;;;;;;;6.15;4.65;;;;;;;0.92;100.00;95793.81;5066988;28;25006;-71
2022/12/07 07:26:04;;;;;;;6.53;4.47;;;;;;;0.96;100.00;95792.88;5069779;28;24442;-71
2022/12/07 07:28:31;;;;;;;8.13;4.80;;;;;;;0.95;100.00;95803.09;5066834;28;24434;-71
2022/12/07 07:30:57;;;;;;;7.50;5.18;;;;;;;1.00;100.00;95795.34;5069759;28;24972;-71
2022/12/07 07:33:24;;;;;;;5.55;4.65;;;;;;;0.99;100.00;95802.16;5067575;28;24427;-71
2022/12/07 07:35:51;;;;;;;5.88;4.85;;;;;;;1.03;100.00;95797.81;5069736;28;24434;-71
2022/12/07 07:38:17;;;;;;;6.60;4.97;;;;;;;0.81;100.00;95795.78;5067381;28;24438;-71
2022/12/07 07:40:44;;;;;;;6.28;4.88;;;;;;;0.90;100.00;95795.56;5066479;28;24442;-70
2022/12/07 07:43:12;;;;;;;5.85;4.72;;;;;;;0.86;100.00;95805.91;5062121;28;25064;-70
2022/12/07 07:45:38;;;;;;;6.45;4.88;;;;;;;0.76;100.00;95802.72;5066331;28;24435;-70
2022/12/07 07:48:05;;;;;;;6.73;4.77;;;;;;;0.69;100.00;95812.22;5063900;28;24457;-70
2022/12/07 07:50:31;;;;;;;5.30;4.65;;;;;;;0.65;100.00;95810.63;5066063;28;24789;-70
2022/12/07 07:52:58;;;;;;;5.57;4.90;;;;;;;0.66;100.00;95809.72;5066553;28;24469;-70
2022/12/07 07:55:25;;;;;;;8.07;5.28;;;;;;;0.81;100.00;95800.03;5062791;28;25039;-71
2022/12/07 07:57:51;;;;;;;13.27;8.32;;;;;;;0.76;100.00;95812.91;5063664;28;24435;-70
2022/12/07 08:00:20;;;;;;;11.35;8.50;;;;;;;0.90;100.00;95817.69;5069063;28;25079;-70
2022/12/07 08:02:46;;;;;;;8.63;7.20;;;;;;;0.91;100.00;95816.81;5061519;28;24431;-71
2022/12/07 08:05:14;;;;;;;9.30;7.38;;;;;;;0.87;100.00;95818.59;5062934;28;24446;-71
2022/12/07 08:07:41;;;;;;;9.57;6.75;;;;;;;0.84;100.00;95817.81;5068870;28;24434;-71
2022/12/07 08:10:10;;;;;;;7.03;5.97;;;;;;;0.95;100.00;95815.84;5065598;28;24938;-71
2022/12/07 08:13:10;;;;;;;9.45;5.55;;;;;;;0.99;100.00;95798.75;5067661;28;24461;-71
2022/12/07 08:15:27;;;;;;;6.88;5.72;;;;;;;0.83;100.00;95811.06;5065806;28;24434;-71
2022/12/07 08:17:54;;;;;;;6.45;5.85;;;;;;;0.90;100.00;95810.88;5060247;28;24816;-71
2022/12/07 08:20:21;;;;;;;8.10;5.35;;;;;;;0.96;100.00;95817.53;5064177;28;24528;-70
2022/12/07 08:22:47;;;;;;;5.68;4.68;;;;;;;0.92;100.00;95821.03;5068700;28;24793;-70
2022/12/07 08:25:14;;;;;;;9.05;4.72;;;;;;;0.96;100.00;95823.50;5065021;28;24439;-70
2022/12/07 08:27:40;;;;;;;5.43;4.78;;;;;;;1.04;100.00;95815.66;5054025;28;24841;-71
2022/12/07 08:30:08;;;;;;;5.65;4.72;;;;;;;0.90;100.00;95818.53;5059576;28;24441;-70
2022/12/07 08:32:36;;;;;;;6.43;4.60;;;;;;;1.02;100.00;95814.84;5057446;28;24832;-70
2022/12/07 08:35:02;;;;;;;6.10;5.00;;;;;;;0.98;100.00;95820.88;5062184;28;24431;-71
2022/12/07 08:37:29;;;;;;;7.07;5.30;;;;;;;1.01;100.00;95808.06;5068317;28;24453;-70
2022/12/07 08:39:55;;;;;;;6.03;4.90;;;;;;;0.98;100.00;95815.78;5055986;28;24443;-70
2022/12/07 08:42:27;;;;;;;6.72;3.72;;;;;;;1.07;100.00;95817.25;5061458;28;24453;-69
2022/12/07 08:44:53;;;;;;;4.65;3.90;;;;;;;1.03;100.00;95825.88;5055499;28;24477;-70
2022/12/07 08:47:20;;;;;;;9.00;3.70;;;;;;;1.11;100.00;95829.06;5061180;28;24445;-69
2022/12/07 08:49:50;;;;;;;4.30;3.27;;;;;;;1.09;100.00;95818.91;5063623;28;24453;-70
2022/12/07 08:52:17;;;;;;;3.58;3.20;;;;;;;1.05;100.00;95813.94;5062894;28;24459;-70
2022/12/07 08:54:43;;;;;;;3.77;3.27;;;;;;;1.09;100.00;95813.81;5056428;28;24435;-70
2022/12/07 08:57:11;;;;;;;4.50;3.95;;;;;;;1.15;100.00;95821.31;5061232;28;24829;-71
2022/12/07 08:59:38;;;;;;;5.28;4.07;;;;;;;1.23;100.00;95818.56;5063300;28;24446;-71
2022/12/07 09:02:05;;;;;;;4.20;3.80;;;;;;;1.34;100.00;95819.13;5066820;28;24458;-71
2022/12/07 09:04:31;;;;;;;5.25;4.40;;;;;;;1.37;100.00;95813.94;5066754;28;24445;-72
2022/12/07 09:07:00;;;;;;;5.78;4.32;;;;;;;1.48;100.00;95817.91;5061178;28;24441;-72
2022/12/07 09:09:26;;;;;;;5.22;4.47;;;;;;;1.49;100.00;95811.94;5061511;28;24442;-72
2022/12/07 09:11:53;;;;;;;6.65;5.40;;;;;;;1.59;100.00;95809.09;5065540;28;24489;-72
2022/12/07 09:14:19;;;;;;;9.43;4.90;;;;;;;1.58;100.00;95811.69;5059092;28;25011;-72
2022/12/07 09:16:46;;;;;;;5.40;4.10;;;;;;;1.69;100.00;95809.69;5066090;28;24442;-72
2022/12/07 09:19:12;;;;;;;5.10;4.15;;;;;;;1.66;100.00;95812.31;5056074;28;25008;-73
2022/12/07 09:21:39;;;;;;;6.05;3.90;;;;;;;1.69;100.00;95820.72;5057854;28;24447;-73
2022/12/07 09:24:08;;;;;;;7.93;3.67;;;;;;;1.68;100.00;95818.22;5058312;28;24437;-73
2022/12/07 09:26:35;;;;;;;4.97;4.03;;;;;;;1.82;100.00;95820.41;5061915;28;24522;-72
2022/12/07 09:29:03;;;;;;;7.17;3.97;;;;;;;1.79;100.00;95818.78;5057076;28;24471;-73
2022/12/07 09:31:30;;;;;;;4.85;3.50;;;;;;;1.82;100.00;95817.88;4994819;28;1759354;-73
2022/12/07 09:33:57;;;;;;;4.32;3.72;;;;;;;1.91;100.00;95815.03;5064859;28;24531;-72
2022/12/07 09:36:24;;;;;;;4.43;3.65;;;;;;;1.98;100.00;95829.31;5064196;28;25025;-70
2022/12/07 09:38:51;;;;;;;7.30;3.67;;;;;;;1.81;100.00;95816.16;5062213;28;24434;-71
2022/12/07 09:41:19;;;;;;;3.92;3.42;;;;;;;1.90;100.00;95821.03;5057124;28;24996;-70
2022/12/07 09:43:46;;;;;;;3.40;3.10;;;;;;;2.00;100.00;95819.03;5064539;28;25010;-70
2022/12/07 09:46:17;;;;;;;3.80;3.15;;;;;;;2.06;100.00;95818.88;5062934;28;24439;-70
2022/12/07 09:48:45;;;;;;;5.50;3.65;;;;;;;1.98;100.00;95813.97;5068018;28;25029;-68
2022/12/07 09:51:16;;;;;;;4.82;3.17;;;;;;;1.84;100.00;95809.25;5065996;28;24442;-70
2022/12/07 09:53:44;;;;;;;3.63;3.00;;;;;;;1.89;100.00;95807.44;5059954;28;24450;-71
2022/12/07 09:56:14;;;;;;;5.82;3.67;;;;;;;2.03;100.00;95803.63;5061091;28;24442;-71
2022/12/07 09:58:42;;;;;;;4.93;3.60;;;;;;;2.09;100.00;95806.00;5068264;28;24804;-71
2022/12/07 10:01:13;;;;;;;4.28;2.97;;;;;;;2.18;100.00;95798.91;5054853;28;24983;-71
2022/12/07 10:03:43;;;;;;;5.75;3.40;;;;;;;2.03;100.00;95799.34;5060630;28;24427;-71
2022/12/07 10:06:13;;;;;;;3.47;3.17;;;;;;;2.13;100.00;95800.75;5061483;28;24439;-71
2022/12/07 10:08:41;;;;;;;3.73;3.27;;;;;;;2.16;100.00;95803.22;5068186;28;24468;-71
2022/12/07 10:11:10;;;;;;;3.97;3.50;;;;;;;2.27;100.00;95791.88;5055999;28;24462;-71
2022/12/07 10:13:39;;;;;;;3.83;3.10;;;;;;;2.32;100.00;95792.56;5060462;28;24457;-71
2022/12/07 10:16:07;;;;;;;4.43;3.83;;;;;;;2.37;100.00;95786.44;5061803;28;24553;-71
2022/12/07 10:18:36;;;;;;;3.90;3.50;;;;;;;2.23;100.00;95788.56;5067681;28;24442;-72
2022/12/07 10:21:13;;;;;;;4.40;3.80;;;;;;;2.36;100.00;95783.91;5061194;28;24925;-71
2022/12/07 10:23:41;;;;;;;4.18;3.47;;;;;;;2.45;100.00;95787.91;5054297;28;24427;-71
2022/12/07 10:26:22;;;;;;;3.85;3.45;;;;;;;2.42;100.00;95783.72;5067663;28;25262;-71
2022/12/07 10:28:49;;;;;;;5.07;2.90;;;;;;;2.38;100.00;95777.03;5063862;28;24430;-71
2022/12/07 10:31:20;;;;;;;3.75;2.72;;;;;;;2.26;100.00;95782.50;5064139;28;24435;-71
2022/12/07 10:33:52;;;;;;;3.10;2.50;;;;;;;2.14;100.00;95776.88;5057187;28;24454;-71
2022/12/07 10:36:22;;;;;;;5.95;2.72;;;;;;;2.18;100.00;95770.78;5062217;28;24445;-71
2022/12/07 10:38:50;;;;;;;3.13;2.78;;;;;;;2.06;100.00;95780.56;5059595;28;24435;-71
2022/12/07 10:41:17;;;;;;;4.15;2.72;;;;;;;2.09;100.00;95786.41;5065994;28;24437;-71
2022/12/07 10:43:52;;;;;;;6.75;2.95;;;;;;;2.20;100.00;95772.50;5062191;28;24485;-71
2022/12/07 10:46:51;;;;;;;3.08;2.58;;;;;;;2.27;100.00;95773.97;5061498;28;24995;-71
2022/12/07 10:49:59;;;;;;;4.43;2.47;;;;;;;2.32;100.00;95774.66;5067306;28;24435;-72
2022/12/07 10:52:42;;;;;;;4.10;2.60;;;;;;;2.38;100.00;95769.38;5055531;28;24469;-71
2022/12/07 10:55:20;;;;;;;2.03;1.83;;;;;;;2.32;100.00;95765.28;5068852;28;24885;-72
2022/12/07 10:57:59;;;;;;;1.95;1.48;;;;;;;2.27;100.00;95758.66;5065296;28;24438;-73
2022/12/07 11:00:26;;;;;;;2.10;1.70;;;;;;;2.26;100.00;95759.50;5064903;28;24435;-71
2022/12/07 11:03:18;;;;;;;3.80;2.70;;;;;;;2.27;100.00;95758.66;5066252;28;24534;-71
2022/12/07 11:05:54;;;;;;;1.70;1.25;;;;;;;2.16;100.00;95754.69;5070977;28;24533;-71
2022/12/07 11:08:39;;;;;;;2.80;2.20;;;;;;;2.27;100.00;95756.09;5063866;28;24438;-71
2022/12/07 11:11:14;;;;;;;1.45;1.20;;;;;;;2.19;100.00;95746.09;5064447;28;24820;-71
2022/12/07 11:13:48;;;;;;;6.82;1.38;;;;;;;2.16;100.00;95747.03;5070949;28;24443;-71
2022/12/07 11:16:25;;;;;;;1.85;1.67;;;;;;;2.10;100.00;95744.66;5062159;28;24439;-72
2022/12/07 11:19:06;;;;;;;2.75;2.00;;;;;;;2.10;100.00;95741.25;5069322;28;25018;-72
2022/12/07 11:21:40;;;;;;;2.80;1.70;;;;;;;2.12;100.00;95737.78;5065759;28;25018;-72
2022/12/07 11:24:13;;;;;;;3.00;1.80;;;;;;;2.09;100.00;95749.81;5067360;28;24436;-72
2022/12/07 11:26:56;;;;;;;2.33;1.90;;;;;;;2.09;100.00;95735.31;5069269;28;25006;-72
2022/12/07 11:29:44;;;;;;;2.60;2.03;;;;;;;2.06;100.00;95729.47;5067278;28;24439;-71
2022/12/07 11:32:19;;;;;;;5.37;2.07;;;;;;;2.10;100.00;95733.59;5069892;28;24458;-71
2022/12/07 11:35:00;;;;;;;1.60;1.50;;;;;;;2.14;100.00;95730.88;5070555;28;24431;-71
2022/12/07 11:37:32;;;;;;;1.63;1.52;;;;;;;2.06;100.00;95725.19;5064696;28;24443;-71
2022/12/07 11:40:04;;;;;;;3.40;2.35;;;;;;;2.20;100.00;95724.78;5066841;28;24439;-71
2022/12/07 11:42:37;;;;;;;1.50;1.40;;;;;;;2.15;100.00;95724.91;5063987;28;24446;-71
2022/12/07 11:45:14;;;;;;;3.95;1.85;;;;;;;2.22;100.00;95720.44;5059321;28;24449;-71